sensor_id;sensor_type;location;lat;lon;timestamp;pressure;altitude;pressure_sealevel;temperature;humidity
929;BME280;451;47.988;7.842;2022-12-07T00:06:53;98609.28;;;5.21;100.00
929;BME280;451;47.988;7.842;2022-12-07T00:15:55;98654.78;;;5.47;100.00
929;BME280;451;47.988;7.842;2022-12-07T00:24:57;98485.91;;;4.32;100.00
929;BME280;451;47.988;7.842;2022-12-07T00:33:59;98424.09;;;4.55;100.00
929;BME280;451;47.988;7.842;2022-12-07T00:43:00;98485.00;;;4.93;100.00
929;BME280;451;47.988;7.842;2022-12-07T00:52:02;98615.69;;;5.57;100.00
929;BME280;451;47.988;7.842;2022-12-07T01:01:05;98516.84;;;5.06;100.00
929;BME280;451;47.988;7.842;2022-12-07T01:10:07;98627.25;;;5.74;100.00
929;BME280;451;47.988;7.842;2022-12-07T01:19:09;98492.44;;;5.16;100.00
929;BME280;451;47.988;7.842;2022-12-07T01:28:11;98509.59;;;4.60;100.00
929;BME280;451;47.988;7.842;2022-12-07T01:37:12;98628.50;;;5.89;100.00
929;BME280;451;47.988;7.842;2022-12-07T01:46:14;98637.59;;;6.04;100.00
929;BME280;451;47.988;7.842;2022-12-07T01:55:16;98598.69;;;5.03;100.00
929;BME280;451;47.988;7.842;2022-12-07T02:04:18;98658.25;;;4.87;100.00
929;BME280;451;47.988;7.842;2022-12-07T02:13:24;98590.59;;;4.45;100.00
929;BME280;451;47.988;7.842;2022-12-07T02:22:46;98649.13;;;4.72;100.00
929;BME280;451;47.988;7.842;2022-12-07T02:32:03;98569.69;;;4.26;100.00
929;BME280;451;47.988;7.842;2022-12-07T02:50:12;98548.63;;;3.88;100.00
929;BME280;451;47.988;7.842;2022-12-07T02:59:33;98648.25;;;4.20;100.00
929;BME280;451;47.988;7.842;2022-12-07T03:08:47;98653.88;;;4.25;100.00
929;BME280;451;47.988;7.842;2022-12-07T03:17:54;98321.47;;;2.23;100.00
929;BME280;451;47.988;7.842;2022-12-07T03:27:25;98642.09;;;4.42;100.00
929;BME280;451;47.988;7.842;2022-12-07T03:36:46;98666.66;;;4.28;100.00
929;BME280;451;47.988;7.842;2022-12-07T03:55:15;98534.81;;;4.38;100.00
929;BME280;451;47.988;7.842;2022-12-07T04:04:18;98623.25;;;5.10;100.00
929;BME280;451;47.988;7.842;2022-12-07T04:13:20;98472.47;;;4.27;100.00
929;BME280;451;47.988;7.842;2022-12-07T04:22:22;98484.66;;;4.06;100.00
929;BME280;451;47.988;7.842;2022-12-07T04:31:24;98463.59;;;3.79;100.00
929;BME280;451;47.988;7.842;2022-12-07T04:40:26;98354.28;;;3.29;100.00
929;BME280;451;47.988;7.842;2022-12-07T04:49:28;98443.34;;;3.82;100.00
929;BME280;451;47.988;7.842;2022-12-07T04:58:29;98534.47;;;4.01;100.00
929;BME280;451;47.988;7.842;2022-12-07T05:07:31;98477.56;;;4.08;100.00
929;BME280;451;47.988;7.842;2022-12-07T05:16:33;98612.56;;;4.53;100.00
929;BME280;451;47.988;7.842;2022-12-07T05:25:35;98469.00;;;3.87;100.00
929;BME280;451;47.988;7.842;2022-12-07T05:34:36;98594.53;;;4.61;100.00
929;BME280;451;47.988;7.842;2022-12-07T05:43:38;98513.81;;;3.79;100.00
929;BME280;451;47.988;7.842;2022-12-07T05:52:40;98444.28;;;3.19;100.00
929;BME280;451;47.988;7.842;2022-12-07T06:01:42;98519.28;;;3.44;100.00
929;BME280;451;47.988;7.842;2022-12-07T06:10:43;98606.41;;;3.59;100.00
929;BME280;451;47.988;7.842;2022-12-07T06:19:45;98603.38;;;3.86;100.00
929;BME280;451;47.988;7.842;2022-12-07T06:28:47;98560.88;;;3.33;100.00
929;BME280;451;47.988;7.842;2022-12-07T06:37:49;98593.94;;;3.42;100.00
929;BME280;451;47.988;7.842;2022-12-07T06:46:51;98595.34;;;3.46;100.00
929;BME280;451;47.988;7.842;2022-12-07T06:55:52;98614.06;;;3.07;100.00
929;BME280;451;47.988;7.842;2022-12-07T07:04:54;98624.22;;;3.10;100.00
929;BME280;451;47.988;7.842;2022-12-07T07:13:56;98622.09;;;3.15;100.00
929;BME280;451;47.988;7.842;2022-12-07T07:23:00;98557.34;;;2.24;100.00
929;BME280;451;47.988;7.842;2022-12-07T07:32:02;98443.66;;;1.74;100.00
929;BME280;451;47.988;7.842;2022-12-07T07:41:04;98546.59;;;2.18;100.00
929;BME280;451;47.988;7.842;2022-12-07T07:50:06;98525.41;;;1.78;100.00
929;BME280;451;47.988;7.842;2022-12-07T07:59:09;98727.28;;;2.52;100.00
929;BME280;451;47.988;7.842;2022-12-07T08:08:11;98296.34;;;-0.04;100.00
929;BME280;451;47.988;7.842;2022-12-07T08:17:12;98537.94;;;1.49;100.00
929;BME280;451;47.988;7.842;2022-12-07T08:26:15;98689.34;;;2.73;100.00
929;BME280;451;47.988;7.842;2022-12-07T08:35:17;98606.41;;;2.83;100.00
929;BME280;451;47.988;7.842;2022-12-07T08:44:19;98594.81;;;3.63;100.00
929;BME280;451;47.988;7.842;2022-12-07T08:53:21;98593.38;;;3.71;100.00
929;BME280;451;47.988;7.842;2022-12-07T09:02:23;98680.63;;;4.69;100.00
929;BME280;451;47.988;7.842;2022-12-07T09:11:25;98477.34;;;4.11;100.00
929;BME280;451;47.988;7.842;2022-12-07T09:20:29;98664.75;;;5.02;100.00
929;BME280;451;47.988;7.842;2022-12-07T09:29:31;98678.75;;;5.01;100.00
929;BME280;451;47.988;7.842;2022-12-07T09:38:32;98640.28;;;4.63;100.00
929;BME280;451;47.988;7.842;2022-12-07T09:47:34;98544.88;;;4.01;100.00
929;BME280;451;47.988;7.842;2022-12-07T09:56:37;98668.63;;;5.08;100.00
929;BME280;451;47.988;7.842;2022-12-07T10:05:43;98552.91;;;4.70;100.00
929;BME280;451;47.988;7.842;2022-12-07T10:15:05;98644.03;;;6.10;94.44
929;BME280;451;47.988;7.842;2022-12-07T10:42:31;98597.34;;;6.72;77.30
929;BME280;451;47.988;7.842;2022-12-07T10:51:44;98588.34;;;7.39;75.08
929;BME280;451;47.988;7.842;2022-12-07T11:10:08;98470.16;;;7.53;70.51
929;BME280;451;47.988;7.842;2022-12-07T11:19:32;98559.19;;;8.40;66.14
929;BME280;451;47.988;7.842;2022-12-07T11:38:17;98542.94;;;8.19;58.43
929;BME280;451;47.988;7.842;2022-12-07T11:47:41;98451.56;;;8.08;57.11
929;BME280;451;47.988;7.842;2022-12-07T11:56:48;98466.41;;;7.03;59.68
929;BME280;451;47.988;7.842;2022-12-07T12:05:51;98513.88;;;8.48;59.74
929;BME280;451;47.988;7.842;2022-12-07T12:24:25;98366.13;;;7.21;58.14
929;BME280;451;47.988;7.842;2022-12-07T12:33:30;98436.56;;;7.23;61.46
929;BME280;451;47.988;7.842;2022-12-07T12:42:47;98482.81;;;7.84;66.68
929;BME280;451;47.988;7.842;2022-12-07T12:51:57;98376.00;;;6.92;64.52
929;BME280;451;47.988;7.842;2022-12-07T13:10:40;98305.16;;;6.60;67.88
929;BME280;451;47.988;7.842;2022-12-07T13:19:54;98464.72;;;7.29;67.03
929;BME280;451;47.988;7.842;2022-12-07T13:29:16;98441.66;;;7.68;64.57
929;BME280;451;47.988;7.842;2022-12-07T13:38:25;98451.53;;;6.85;64.86
929;BME280;451;47.988;7.842;2022-12-07T13:47:36;98441.56;;;7.34;66.50
929;BME280;451;47.988;7.842;2022-12-07T13:56:41;98447.50;;;7.44;66.21
929;BME280;451;47.988;7.842;2022-12-07T14:05:44;98422.94;;;6.84;68.19
929;BME280;451;47.988;7.842;2022-12-07T14:14:47;98412.94;;;6.79;67.03
929;BME280;451;47.988;7.842;2022-12-07T14:24:15;98422.50;;;6.88;67.55
929;BME280;451;47.988;7.842;2022-12-07T14:33:19;98122.81;;;5.04;68.50
929;BME280;451;47.988;7.842;2022-12-07T14:42:24;98421.72;;;6.61;67.16
929;BME280;451;47.988;7.842;2022-12-07T14:51:26;98180.94;;;5.04;67.21
929;BME280;451;47.988;7.842;2022-12-07T15:00:28;98396.75;;;6.31;68.38
929;BME280;451;47.988;7.842;2022-12-07T15:09:30;98433.28;;;6.31;72.25
929;BME280;451;47.988;7.842;2022-12-07T15:18:32;98249.84;;;5.19;74.33
929;BME280;451;47.988;7.842;2022-12-07T15:27:34;98372.16;;;5.96;77.24
929;BME280;451;47.988;7.842;2022-12-07T15:36:36;98165.75;;;4.05;78.90
929;BME280;451;47.988;7.842;2022-12-07T15:45:38;98381.47;;;5.43;83.49
929;BME280;451;47.988;7.842;2022-12-07T15:54:39;98273.38;;;4.71;85.38
929;BME280;451;47.988;7.842;2022-12-07T16:03:42;98424.81;;;5.34;86.72
929;BME280;451;47.988;7.842;2022-12-07T16:12:44;98254.84;;;4.07;85.23
929;BME280;451;47.988;7.842;2022-12-07T16:21:46;98242.09;;;3.94;85.40
929;BME280;451;47.988;7.842;2022-12-07T16:30:47;98160.34;;;3.09;90.90
929;BME280;451;47.988;7.842;2022-12-07T16:39:49;98339.41;;;3.92;94.49
929;BME280;451;47.988;7.842;2022-12-07T16:48:51;98395.66;;;3.93;99.03
929;BME280;451;47.988;7.842;2022-12-07T16:57:52;98402.03;;;3.58;100.00
929;BME280;451;47.988;7.842;2022-12-07T17:06:54;98307.78;;;2.84;100.00
929;BME280;451;47.988;7.842;2022-12-07T17:16:01;98203.25;;;1.99;100.00
929;BME280;451;47.988;7.842;2022-12-07T17:25:04;98101.59;;;1.21;100.00
929;BME280;451;47.988;7.842;2022-12-07T17:34:13;98380.63;;;3.04;100.00
929;BME280;451;47.988;7.842;2022-12-07T17:43:15;98267.59;;;2.79;100.00
929;BME280;451;47.988;7.842;2022-12-07T17:52:17;98235.13;;;2.84;100.00
929;BME280;451;47.988;7.842;2022-12-07T18:01:37;98463.47;;;3.59;100.00
929;BME280;451;47.988;7.842;2022-12-07T18:10:39;98279.38;;;3.04;100.00
929;BME280;451;47.988;7.842;2022-12-07T18:19:42;98369.44;;;2.71;100.00
929;BME280;451;47.988;7.842;2022-12-07T18:28:45;98321.69;;;2.20;100.00
929;BME280;451;47.988;7.842;2022-12-07T18:37:48;98151.38;;;1.13;100.00
929;BME280;451;47.988;7.842;2022-12-07T18:46:49;98407.03;;;2.34;100.00
929;BME280;451;47.988;7.842;2022-12-07T18:56:02;98362.00;;;2.13;100.00
929;BME280;451;47.988;7.842;2022-12-07T19:05:04;98229.41;;;1.31;100.00
929;BME280;451;47.988;7.842;2022-12-07T19:14:07;98222.91;;;1.14;100.00
929;BME280;451;47.988;7.842;2022-12-07T19:23:08;98355.19;;;2.00;100.00
929;BME280;451;47.988;7.842;2022-12-07T19:32:10;98347.53;;;1.88;100.00
929;BME280;451;47.988;7.842;2022-12-07T19:41:12;98313.06;;;1.54;100.00
929;BME280;451;47.988;7.842;2022-12-07T19:50:33;98302.72;;;1.43;100.00
929;BME280;451;47.988;7.842;2022-12-07T19:59:35;98337.88;;;1.45;100.00
929;BME280;451;47.988;7.842;2022-12-07T20:08:37;98205.66;;;0.47;100.00
929;BME280;451;47.988;7.842;2022-12-07T20:17:38;98319.41;;;1.28;100.00
929;BME280;451;47.988;7.842;2022-12-07T20:26:42;98305.50;;;1.17;100.00
929;BME280;451;47.988;7.842;2022-12-07T20:35:45;98199.25;;;0.28;100.00
929;BME280;451;47.988;7.842;2022-12-07T20:44:47;98318.75;;;1.02;100.00
929;BME280;451;47.988;7.842;2022-12-07T20:53:49;98358.69;;;1.21;100.00
929;BME280;451;47.988;7.842;2022-12-07T21:02:51;98135.75;;;-0.22;100.00
929;BME280;451;47.988;7.842;2022-12-07T21:11:53;97749.19;;;-2.37;100.00
929;BME280;451;47.988;7.842;2022-12-07T21:20:55;98171.91;;;0.37;100.00
929;BME280;451;47.988;7.842;2022-12-07T21:29:56;98259.13;;;1.14;100.00
929;BME280;451;47.988;7.842;2022-12-07T21:38:58;98283.59;;;1.77;100.00
929;BME280;451;47.988;7.842;2022-12-07T21:48:00;97961.25;;;-0.02;100.00
929;BME280;451;47.988;7.842;2022-12-07T21:57:02;98271.16;;;2.14;100.00
929;BME280;451;47.988;7.842;2022-12-07T22:06:03;98264.91;;;2.17;100.00
929;BME280;451;47.988;7.842;2022-12-07T22:15:06;98070.38;;;0.91;100.00
929;BME280;451;47.988;7.842;2022-12-07T22:24:09;98263.44;;;2.35;100.00
929;BME280;451;47.988;7.842;2022-12-07T22:33:11;98228.69;;;1.94;100.00
929;BME280;451;47.988;7.842;2022-12-07T22:42:13;98063.41;;;1.02;100.00
929;BME280;451;47.988;7.842;2022-12-07T22:51:22;98238.31;;;2.03;100.00
929;BME280;451;47.988;7.842;2022-12-07T23:00:24;98084.56;;;1.18;100.00
929;BME280;451;47.988;7.842;2022-12-07T23:09:25;98223.72;;;2.34;100.00
929;BME280;451;47.988;7.842;2022-12-07T23:18:27;97950.97;;;0.52;100.00
929;BME280;451;47.988;7.842;2022-12-07T23:27:29;98205.00;;;1.99;100.00
929;BME280;451;47.988;7.842;2022-12-07T23:36:31;98236.25;;;1.86;100.00
929;BME280;451;47.988;7.842;2022-12-07T23:45:33;98154.28;;;1.42;100.00
929;BME280;451;47.988;7.842;2022-12-07T23:54:35;98071.03;;;1.04;100.00
